• Join FlightAware (Why Join?)
  • Login
  • US Flag 
01:36AM EDT


 

Airport Tracker/Info


-or-


 

Live Flight TrackerFlight Track Log ✈ UAL1649 ✈ 09-May-2013 ✈ KORD - KSFO

Flight Track Log - Related Links

Times and Time Zones

All times are in EDT time to prevent confusion due to time zone crossing. See the UAL1649 flight status page for this flight to view local times or setup timezone preferences in your user account.

Time Position Orientation Groundspeed Altitude Reporting Facility
EDT Latitude Longitude Course Direction KTS MPH feet Rate Location/Type
09:21PM 42.0000 -87.9500 261° West 187 215 2,200  Level Chicago TRACON
09:22PM 42.0667 -88.0000 331° Northwest 247 284 4,400 1,560 Climbing Chicago TRACON
09:23PM 42.1333 -88.0500 331° Northwest 288 331 5,400 1,980 Climbing Chicago TRACON
09:24PM 41.9099 -88.5244 261° West  Level FlightAware Approximate
09:24PM 42.1411 -88.1544 276° West 266 306 9,000  Level Chicago Center
09:25PM 41.8914 -88.6817 261° West  Level FlightAware Approximate
09:25PM 42.1164 -88.2486 251° West 266 306 12,100  Level Chicago Center
09:26PM 41.8732 -88.8390 261° West  Level FlightAware Approximate
09:26PM 42.0864 -88.3586 250° West 306 352 13,500  Level Chicago Center
09:27PM 42.0447 -88.5061 249° West 347 399 16,300 2,580 Climbing Chicago Center
09:28PM 42.0069 -88.6347 248° West 367 422 18,900 2,340 Climbing Chicago Center
09:30PM 41.9678 -88.7656 248° West 378 435 21,200 2,100 Climbing Chicago Center
09:31PM 41.9472 -88.9072 259° West 394 453 23,300 1,920 Climbing Chicago Center
09:32PM 41.9372 -89.0564 265° West 403 464 25,200 1,800 Climbing Chicago Center
09:33PM 41.9200 -89.2367 263° West 409 471 27,100 1,560 Climbing Chicago Center
09:34PM 41.9075 -89.3928 264° West 419 482 28,500 1,260 Climbing Chicago Center
09:35PM 41.8922 -89.5522 263° West 432 497 29,700 1,320 Climbing Chicago Center
09:36PM 41.8769 -89.7133 263° West 437 503 31,300 1,560 Climbing Chicago Center
09:37PM 41.8611 -89.8733 262° West 436 502 33,000 1,500 Climbing Chicago Center
09:38PM 41.8486 -90.0411 264° West 426 490 34,500 1,380 Climbing Chicago Center
09:39PM 41.8328 -90.1961 262° West 423 487 35,900 1,260 Climbing Chicago Center
09:40PM 41.8164 -90.3492 262° West 420 483 37,100 960 Climbing Chicago Center
09:41PM 41.8014 -90.4983 262° West 412 474 38,000 420 Climbing Chicago Center
09:42PM 41.7819 -90.6822 262° West 415 478 38,000  Level Chicago Center
09:43PM 41.7661 -90.8306 262° West 409 471 38,000  Level Chicago Center
09:44PM 41.7503 -90.9825 262° West 412 474 38,000  Level Chicago Center
09:45PM 41.7353 -91.1336 262° West 411 473 38,000  Level Chicago Center
09:46PM 41.7189 -91.2831 262° West 409 471 38,000  Level Chicago Center
09:47PM 41.7033 -91.4308 262° West 404 465 38,000  Level Chicago Center
09:48PM 41.6822 -91.6097 261° West 407 468 38,000  Level Chicago Center
09:49PM 41.6664 -91.7567 262° West 405 466 38,000  Level Chicago Center
09:50PM 41.6503 -91.9069 262° West 407 468 38,000  Level Chicago Center
09:51PM 41.6322 -92.0561 261° West 409 471 38,000  Level Chicago Center
09:52PM 41.6142 -92.2081 261° West 412 474 38,000  Level Chicago Center
09:53PM 41.5961 -92.3578 261° West 412 474 38,000  Level Chicago Center
09:54PM 41.5797 -92.5094 262° West 412 474 38,000  Level Chicago Center
09:55PM 41.5575 -92.6894 261° West 413 475 38,000  Level Chicago Center
09:56PM 41.5394 -92.8411 261° West 414 476 38,000  Level Chicago Center
09:57PM 41.5250 -92.9611 261° West 413 475 38,000  Level Minneapolis Center
09:58PM 41.5019 -93.1414 260° West 414 476 38,000  Level Minneapolis Center
09:59PM 41.4836 -93.2881 261° West 412 474 38,000  Level Minneapolis Center
10:00PM 41.4650 -93.4378 261° West 412 474 38,000  Level Minneapolis Center
10:01PM 41.4453 -93.5875 260° West 413 475 38,000  Level Minneapolis Center
10:02PM 41.4372 -93.7400 266° West 417 480 38,000  Level Minneapolis Center
10:03PM 41.4414 -93.8864 272° West 409 471 38,000  Level Minneapolis Center
10:04PM 41.4411 -94.0711 270° West 416 479 38,000  Level Minneapolis Center
10:05PM 41.4406 -94.2300 270° West 417 480 38,000  Level Minneapolis Center
10:06PM 41.4403 -94.3858 270° West 421 484 38,000  Level Minneapolis Center
10:07PM 41.4394 -94.5389 270° West 417 480 38,000  Level Minneapolis Center
10:08PM 41.4403 -94.6925 270° West 416 479 38,000  Level Minneapolis Center
10:09PM 41.4400 -94.8483 270° West 421 484 38,000  Level Minneapolis Center
10:10PM 41.4400 -95.0000 270° West 412 474 38,000  Level Minneapolis Center
10:12PM 41.4381 -95.1536 269° West 414 476 38,000  Level Minneapolis Center
10:13PM 41.4381 -95.3117 270° West 425 489 38,000  Level Minneapolis Center
10:14PM 41.4303 -95.4669 266° West 421 484 38,000  Level Minneapolis Center
10:15PM 41.4189 -95.6364 265° West 423 487 38,000  Level Minneapolis Center
10:16PM 41.4094 -95.7892 265° West 421 484 38,000  Level Minneapolis Center
10:17PM 41.3981 -95.9439 264° West 421 484 38,000  Level Minneapolis Center
10:18PM 41.3869 -96.1317 266° West 423 487 38,000  Level Minneapolis Center
10:19PM 41.3764 -96.2883 265° West 424 488 38,000  Level Minneapolis Center
10:20PM 41.3658 -96.4486 265° West 423 487 38,000  Level Minneapolis Center
10:21PM 41.3550 -96.6031 265° West 418 481 38,000  Level Minneapolis Center
10:22PM 41.3433 -96.7561 264° West 415 478 38,000  Level Minneapolis Center
10:23PM 41.3314 -96.9100 264° West 417 480 38,000  Level Minneapolis Center
10:24PM 41.3197 -97.0650 264° West 420 483 38,000  Level Minneapolis Center
10:25PM 41.3072 -97.2192 264° West 421 484 38,000  Level Minneapolis Center
10:26PM 41.2942 -97.4022 265° West 422 486 38,000  Level Minneapolis Center
10:27PM 41.2819 -97.5575 264° West 423 487 38,000  Level Minneapolis Center
10:28PM 41.2683 -97.7144 263° West 425 489 38,000  Level Minneapolis Center
10:29PM 41.2558 -97.8714 264° West 426 490 38,000  Level Minneapolis Center
10:30PM 41.2431 -98.0281 264° West 428 493 38,000  Level Minneapolis Center
10:31PM 41.2297 -98.1842 264° West 426 490 38,000  Level Minneapolis Center
10:32PM 41.2167 -98.3397 264° West 425 489 38,000  Level Minneapolis Center
10:33PM 41.2031 -98.4989 264° West 425 489 38,000  Level Minneapolis Center
10:34PM 41.1894 -98.6539 263° West 425 489 38,000  Level Minneapolis Center
10:35PM 41.1728 -98.8425 263° West 427 491 38,000  Level Minneapolis Center
10:36PM 41.1581 -98.9992 263° West 428 493 38,000  Level Minneapolis Center
10:37PM 41.1419 -99.1683 263° West 425 489 38,000  Level Denver Center
10:38PM 41.1275 -99.3231 263° West 423 487 38,000  Level Denver Center
10:39PM 41.1122 -99.4847 263° West 423 487 38,000  Level Denver Center
10:40PM 41.0950 -99.6556 262° West 421 484 38,000  Level Denver Center
10:41PM 41.0789 -99.8153 262° West 420 483 38,000  Level Denver Center
10:42PM 41.0633 -99.9714 263° West 416 479 38,000  Level Denver Center
10:44PM 41.0494 -100.1164 263° West 417 480 38,000  Level Denver Center
10:45PM 41.0314 -100.2858 262° West 417 480 38,000  Level Denver Center
10:46PM 41.0164 -100.4317 262° West 419 482 38,000  Level Denver Center
10:47PM 40.9989 -100.6000 262° West 418 481 38,000  Level Denver Center
10:48PM 40.9836 -100.7444 262° West 420 483 38,000  Level Denver Center
10:49PM 40.9636 -100.9114 261° West 419 482 38,000  Level Denver Center
10:50PM 40.9478 -101.0553 262° West 418 481 38,000  Level Denver Center
10:51PM 40.9283 -101.2256 261° West 421 484 38,000  Level Denver Center
10:52PM 40.9119 -101.3714 262° West 421 484 38,000  Level Denver Center
10:53PM 40.8956 -101.5189 262° West 424 488 38,000  Level Denver Center
10:54PM 40.8756 -101.6889 261° West 421 484 38,000  Level Denver Center
10:55PM 40.8583 -101.8347 261° West 421 484 38,000  Level Denver Center
10:56PM 40.8375 -102.0061 261° West 424 488 38,000  Level Denver Center
10:57PM 40.8197 -102.1539 261° West 426 490 38,000  Level Denver Center
10:58PM 40.7994 -102.3242 261° West 422 486 38,000  Level Denver Center
10:59PM 40.7803 -102.4717 260° West 425 489 38,000  Level Denver Center
11:00PM 40.7594 -102.6431 261° West 424 488 38,000  Level Denver Center
11:01PM 40.7408 -102.7906 261° West 426 490 38,000  Level Denver Center
11:02PM 40.7211 -102.9397 260° West 432 497 38,000  Level Denver Center
11:03PM 40.7000 -103.1108 261° West 425 489 38,000  Level Denver Center
11:04PM 40.6808 -103.2592 260° West 428 493 38,000  Level Denver Center
11:05PM 40.6586 -103.4236 260° West 428 493 38,000  Level Denver Center
11:06PM 40.6394 -103.5694 260° West 424 488 38,000  Level Denver Center
11:07PM 40.6156 -103.7431 260° West 430 495 38,000  Level Denver Center
11:08PM 40.5964 -103.8886 260° West 425 489 38,000  Level Denver Center
11:09PM 40.5758 -104.0342 260° West 423 487 38,000  Level Denver Center
11:10PM 40.5528 -104.2031 260° West 435 501 38,000  Level Denver Center
11:11PM 40.5289 -104.3658 259° West 427 491 38,000  Level Denver Center
11:12PM 40.5086 -104.5219 260° West 435 501 38,000  Level Denver Center
11:13PM 40.4886 -104.6853 261° West 428 493 38,000  Level Denver Center
11:14PM 40.4703 -104.8433 261° West 438 504 38,000  Level Denver Center
11:16PM 40.4483 -105.0314 261° West 427 491 38,000  Level Denver Center
11:17PM 40.4306 -105.1847 261° West 427 491 38,000  Level Denver Center
11:18PM 40.4111 -105.3486 261° West 426 490 38,000  Level Denver Center
11:19PM 40.3944 -105.4839 261° West 427 491 38,000  Level Denver Center
11:20PM 40.3728 -105.6339 259° West 420 483 38,000  Level Denver Center
11:21PM 40.3511 -105.8197 261° West 428 493 38,000  Level Denver Center
11:22PM 40.3322 -105.9739 261° West 430 495 38,000  Level Denver Center
11:23PM 40.3089 -106.1258 259° West 426 490 38,000  Level Denver Center
11:24PM 40.2886 -106.2825 260° West 430 495 38,000  Level Denver Center
11:25PM 40.2656 -106.4325 259° West 436 502 38,000  Level Denver Center
11:26PM 40.2425 -106.5928 259° West 437 503 38,000  Level Denver Center
11:27PM 40.2206 -106.7494 260° West 438 504 38,000  Level Denver Center
11:28PM 40.1933 -106.9306 259° West 438 504 38,000  Level Denver Center
11:29PM 40.1703 -107.0794 259° West 437 503 38,000  Level Denver Center
11:30PM 40.1439 -107.2547 259° West 438 504 38,000  Level Denver Center
11:31PM 40.1206 -107.4047 259° West 439 505 38,000  Level Denver Center
11:32PM 40.0981 -107.5544 259° West 440 506 38,000  Level Denver Center
11:33PM 40.0700 -107.7281 258° West 438 504 38,000  Level Denver Center
11:34PM 40.0461 -107.8794 258° West 444 511 38,000  Level Denver Center
11:35PM 40.0261 -108.0039 258° West 442 509 38,000  Level Denver Center
11:36PM 39.9936 -108.2039 258° West 445 512 38,000  Level Denver Center
11:37PM 39.9697 -108.3544 258° West 445 512 38,000  Level Denver Center
11:38PM 39.9408 -108.5303 258° West 445 512 38,000  Level Denver Center
11:39PM 39.9158 -108.6811 258° West 447 514 38,000  Level Denver Center
11:40PM 39.8864 -108.8567 258° West 448 516 38,000  Level Denver Center
11:41PM 39.8608 -109.0067 258° West 448 516 38,000  Level Denver Center
11:42PM 39.8311 -109.1836 258° West 450 518 38,000  Level Denver Center
11:43PM 39.8181 -109.2592 257° West 450 518 38,000  Level Salt Lake Center
11:44PM 39.7878 -109.4358 257° West 450 518 38,000  Level Salt Lake Center
11:44PM 39.7747 -109.5106 257° West 449 517 38,000  Level Denver Center
11:45PM 39.7489 -109.6622 258° West 448 516 38,000  Level Denver Center
11:46PM 39.7306 -109.7614 257° West 447 514 38,000  Level Salt Lake Center
11:47PM 39.7039 -109.9117 257° West 447 514 38,000  Level Salt Lake Center
11:48PM 39.6781 -110.0628 258° West 448 516 38,000  Level Salt Lake Center
11:49PM 39.6458 -110.2389 257° West 449 517 38,000  Level Salt Lake Center
11:50PM 39.6186 -110.3911 257° West 451 519 38,000  Level Salt Lake Center
11:51PM 39.5861 -110.5692 257° West 455 524 38,000  Level Salt Lake Center
11:52PM 39.5572 -110.7208 256° West 454 522 38,000  Level Salt Lake Center
11:53PM 39.5292 -110.8722 257° West 452 520 38,000  Level Salt Lake Center
11:54PM 39.4964 -111.0483 256° West 451 519 38,000  Level Salt Lake Center
11:55PM 39.4678 -111.1997 256° West 452 520 38,000  Level Salt Lake Center
11:56PM 39.4378 -111.3569 256° West 453 521 38,000  Level Salt Lake Center
11:57PM 39.4081 -111.5153 256° West 453 521 38,000  Level Salt Lake Center
11:58PM 39.3772 -111.6736 256° West 454 522 38,000  Level Salt Lake Center
11:59PM 39.3456 -111.8325 256° West 456 525 38,000  Level Salt Lake Center
12:00AM 39.3072 -112.0231 255° West 458 527 38,000  Level Salt Lake Center
12:01AM 39.2767 -112.1831 256° West 459 528 38,000  Level Salt Lake Center
12:02AM 39.2439 -112.3411 255° West 459 528 38,000  Level Salt Lake Center
12:03AM 39.2133 -112.4950 256° West 458 527 38,000  Level Salt Lake Center
12:04AM 39.1806 -112.6536 255° West 460 529 38,000  Level Salt Lake Center
12:05AM 39.1475 -112.8119 255° West 461 531 38,000  Level Salt Lake Center
12:06AM 39.1147 -112.9700 255° West 460 529 38,000  Level Salt Lake Center
12:07AM 39.0819 -113.1267 255° West 458 527 38,000  Level Salt Lake Center
12:08AM 39.0422 -113.3158 255° West 458 527 38,000  Level Salt Lake Center
12:09AM 39.0089 -113.4733 255° West 458 527 38,000  Level Salt Lake Center
12:10AM 38.9753 -113.6314 255° West 461 531 38,000  Level Salt Lake Center
12:11AM 38.9411 -113.7894 255° West 462 532 38,000  Level Salt Lake Center
12:12AM 38.9072 -113.9461 255° West 460 529 38,000  Level Salt Lake Center
12:13AM 38.8728 -114.1039 254° West 461 531 38,000  Level Salt Lake Center
12:14AM 38.8381 -114.2633 254° West 465 535 38,000  Level Salt Lake Center
12:15AM 38.8036 -114.4219 254° West 465 535 38,000  Level Salt Lake Center
12:16AM 38.7603 -114.6131 254° West 467 537 38,000  Level Salt Lake Center
12:17AM 38.7250 -114.7711 254° West 466 536 38,000  Level Salt Lake Center
12:19AM 38.6889 -114.9292 254° West 464 534 38,000  Level Salt Lake Center
12:20AM 38.6494 -115.0897 253° West 472 543 38,000  Level Salt Lake Center
12:21AM 38.6133 -115.2475 254° West 468 539 38,000  Level Salt Lake Center
12:22AM 38.5800 -115.4017 255° West 460 529 38,000  Level Salt Lake Center
12:23AM 38.5414 -115.5581 253° West 459 528 38,000  Level Salt Lake Center
12:24AM 38.5064 -115.7156 254° West 461 531 38,000  Level Salt Lake Center
12:25AM 38.4681 -115.8728 253° West 463 533 38,000  Level Salt Lake Center
12:26AM 38.4247 -116.0631 254° West 464 534 38,000  Level Salt Lake Center
12:27AM 38.3864 -116.2206 253° West 466 536 38,000  Level Oakland Center
12:28AM 38.3483 -116.3800 253° West 470 541 38,000  Level Oakland Center
12:29AM 38.3089 -116.5394 253° West 472 543 38,000  Level Oakland Center
12:30AM 38.2706 -116.6986 253° West 471 542 38,000  Level Oakland Center
12:31AM 38.2317 -116.8583 253° West 473 544 38,000  Level Oakland Center
12:32AM 38.1931 -117.0158 253° West 469 540 38,000  Level Oakland Center
12:33AM 38.1489 -117.1892 252° West 468 539 38,000  Level Oakland Center
12:34AM 38.1094 -117.3489 253° West 472 543 38,000  Level Oakland Center
12:35AM 38.0706 -117.5053 253° West 467 537 38,000  Level Oakland Center
12:36AM 38.0300 -117.6611 252° West 467 537 38,000  Level Oakland Center
12:37AM 37.9956 -117.8194 255° West 466 536 38,000  Level Oakland Center
12:38AM 37.9803 -117.9800 263° West 460 529 38,000  Level Oakland Center
12:39AM 37.9633 -118.1417 262° West 462 532 38,000  Level Oakland Center
12:40AM 37.9419 -118.3361 262° West 465 535 38,000  Level Oakland Center
12:41AM 37.9236 -118.4989 262° West 465 535 38,000  Level Oakland Center
12:42AM 37.9058 -118.6631 262° West 467 537 38,000  Level Oakland Center
12:43AM 37.8892 -118.8247 263° West 464 534 38,000  Level Oakland Center
12:44AM 37.8703 -118.9847 262° West 462 532 38,000  Level Oakland Center
12:45AM 37.8431 -119.1519 258° West 458 527 38,000  Level Oakland Center
12:46AM 37.7653 -119.2828 233° Southwest 465 535 38,000  Level Oakland Center
12:47AM 37.6822 -119.4092 230° Southwest 464 534 38,000  Level Oakland Center
12:48AM 37.5981 -119.5389 231° Southwest 476 548 38,000  Level Oakland Center
12:49AM 37.5144 -119.6678 231° Southwest 473 544 38,000  Level Oakland Center
12:50AM 37.4306 -119.7958 231° Southwest 474 545 38,000  Level Oakland Center
12:51AM 37.3467 -119.9222 230° Southwest 475 547 38,000  Level Oakland Center
12:52AM 37.2639 -120.0497 231° Southwest 471 542 38,000 -420 Level Oakland Center
12:53AM 37.1792 -120.1747 230° Southwest 470 541 37,200 -900 Descending Oakland Center
12:54AM 37.0961 -120.2989 230° Southwest 466 536 36,200 -600 Descending Oakland Center
12:55AM 37.0147 -120.4211 230° Southwest 460 529 36,000 -120 Descending Oakland Center
12:56AM 36.9322 -120.5444 230° Southwest 460 529 36,000  Level Oakland Center
12:57AM 36.8342 -120.6908 230° Southwest 461 531 36,000 -60 Level Oakland Center
12:58AM 36.7522 -120.8114 230° Southwest 468 539 35,900  Descending Oakland Center
12:59AM 36.6703 -120.9294 229° Southwest 454 522 36,000  Climbing Oakland Center
01:00AM 36.5856 -121.0550 230° Southwest 470 541 35,900 -120 Descending Oakland Center
01:01AM 36.5003 -121.1792 230° Southwest 472 543 35,800 -600 Descending Oakland Center
01:02AM 36.4167 -121.3025 230° Southwest 471 542 34,800 -1,020 Descending Oakland Center
01:03AM 36.3311 -121.4267 229° Southwest 474 545 33,800 -2,160 Descending Oakland Center
01:04AM 36.2717 -121.5633 242° Southwest 484 557 30,500 -2,760 Descending Oakland Center
01:05AM 36.3183 -121.6944 294° West 435 501 28,300 -2,100 Descending Oakland Center
01:06AM 36.4108 -121.7539 333° Northwest 380 437 26,300 -2,220 Descending Oakland Center
01:07AM 36.5033 -121.8114 333° Northwest 349 402 23,900 -2,580 Descending Oakland Center
01:08AM 36.5333 -121.8333 330° Northwest 338 389 23,000 -2,520 Descending Northern Cal TRACON
01:09AM 36.6167 -121.8833 334° Northwest 327 376 20,700 -1,980 Descending Northern Cal TRACON
01:10AM 36.6664 -121.9139 334° Northwest 328 377 19,600 -1,740 Descending Oakland Center
01:10AM 36.7000 -121.9333 335° Northwest 321 369 19,000 -1,680 Descending Northern Cal TRACON
01:11AM 36.7667 -121.9667 338° Northwest 313 360 17,700 -1,620 Descending Northern Cal TRACON
01:12AM 36.8500 -122.0000 342° North 304 350 16,000 -1,860 Descending Northern Cal TRACON
01:13AM 36.9275 -122.0108 354° North 304 350 14,200 -1,860 Descending Oakland Center
01:14AM 37.0089 -122.0333 348° North 300 345 12,500 -1,680 Descending Oakland Center
01:15AM 37.0714 -122.0994 320° Northwest 304 350 10,900 -1,140 Descending Oakland Center
01:16AM 37.1258 -122.1719 313° West 288 331 10,200 -720 Descending Oakland Center
01:17AM 37.1739 -122.2336 314° West 254 292 9,500 -780 Descending Oakland Center
01:18AM 37.2186 -122.2911 314° West 233 268 8,700 -900 Descending Oakland Center
01:19AM 37.2575 -122.3417 314° West 205 236 7,700 -1,140 Descending Oakland Center
01:20AM 37.2983 -122.3192 24° Northeast 196 226 6,500 -840 Descending Oakland Center
01:21AM 37.3294 -122.2658 54° Northeast 191 220 6,000 -300 Descending Oakland Center
01:22AM 37.3586 -122.2092 57° Northeast 193 222 6,000 -360 Level Oakland Center
01:23AM 37.3950 -122.1428 55° Northeast 194 223 5,300 -900 Descending Oakland Center
01:24AM 37.4333 -122.1000 42° Northeast 194 223 4,300 -660 Descending Northern Cal TRACON
01:25AM 37.4833 -122.1000 360° North 187 215 4,100 -300 Descending Northern Cal TRACON
01:26AM 37.5167 -122.1333 322° Northwest 181 208 3,800 -600 Descending Northern Cal TRACON
01:27AM 37.5500 -122.1833 310° West 178 205 3,000 -840 Descending Northern Cal TRACON
01:28AM 37.5664 -122.2456 288° West 178 205 2,000 -900 Descending Oakland Center
01:29AM 37.5881 -122.2975 298° West 174 200 1,100 -840 Descending Oakland Center
01:30AM 37.6058 -122.3400 298° West 156 180 400 -420 Descending Oakland Center
01:31AM 37.6244 -122.3800 300° West 152 175 300 -120 Descending Oakland Center
01:33AM 37.6167 -122.3667 322° Northwest  Level FlightAware Approximate